<?xml version="1.0" encoding="UTF-8" standalone="no" ?>
<gpx xmlns="http://www.topografix.com/GPX/1/1" xmlns:xsi="http://www.w3.org/2001/XMLSchema-instance" xsi:schemaLocation="http://www.topografix.com/GPX/1/1 http://www.topografix.com/GPX/1/1/gpx.xsd" version="1.1" creator="VisuGPX - https://www.visugpx.com">
  <metadata>
    <name>Grand tour des gorges du loup</name>
    <desc><![CDATA[Tour de VTT dans les gorges du loup]]></desc>
  </metadata>
  <trk>
    <name><![CDATA[GRAND TOUR GORGUES]]></name>
    <trkseg>
      <trkpt lat="43.69785" lon="6.99865">
        <ele>152</ele>
        <time>2010-03-20T07:49:34Z</time>
      </trkpt>
      <trkpt lat="43.69829" lon="6.99953">
        <ele>152</ele>
        <time>2010-03-20T07:51:33Z</time>
      </trkpt>
      <trkpt lat="43.70111" lon="6.99889">
        <ele>154</ele>
        <time>2010-03-20T07:53:11Z</time>
      </trkpt>
      <trkpt lat="43.70303" lon="6.99902">
        <ele>150</ele>
        <time>2010-03-20T07:54:17Z</time>
      </trkpt>
      <trkpt lat="43.7045" lon="7.00058">
        <ele>142</ele>
        <time>2010-03-20T07:55:17Z</time>
      </trkpt>
      <trkpt lat="43.70242" lon="7.00331">
        <ele>159</ele>
        <time>2010-03-20T07:56:52Z</time>
      </trkpt>
      <trkpt lat="43.70259" lon="7.00469">
        <ele>165</ele>
        <time>2010-03-20T07:57:54Z</time>
      </trkpt>
      <trkpt lat="43.70216" lon="7.00592">
        <ele>176</ele>
        <time>2010-03-20T07:59:16Z</time>
      </trkpt>
      <trkpt lat="43.70221" lon="7.00813">
        <ele>222</ele>
        <time>2010-03-20T08:01:10Z</time>
      </trkpt>
      <trkpt lat="43.70276" lon="7.00976">
        <ele>222</ele>
        <time>2010-03-20T08:02:22Z</time>
      </trkpt>
      <trkpt lat="43.70223" lon="7.01311">
        <ele>240</ele>
        <time>2010-03-20T08:04:20Z</time>
      </trkpt>
      <trkpt lat="43.7022" lon="7.01586">
        <ele>245</ele>
        <time>2010-03-20T08:05:52Z</time>
      </trkpt>
      <trkpt lat="43.70279" lon="7.01693">
        <ele>265</ele>
        <time>2010-03-20T08:08:16Z</time>
      </trkpt>
      <trkpt lat="43.70315" lon="7.01723">
        <ele>288</ele>
        <time>2010-03-20T08:09:40Z</time>
      </trkpt>
      <trkpt lat="43.70317" lon="7.01719">
        <ele>302</ele>
        <time>2010-03-20T08:11:28Z</time>
      </trkpt>
      <trkpt lat="43.70314" lon="7.01704">
        <ele>298</ele>
        <time>2010-03-20T08:12:53Z</time>
      </trkpt>
      <trkpt lat="43.70381" lon="7.01779">
        <ele>307</ele>
        <time>2010-03-20T08:13:53Z</time>
      </trkpt>
      <trkpt lat="43.70461" lon="7.01683">
        <ele>315</ele>
        <time>2010-03-20T08:14:58Z</time>
      </trkpt>
      <trkpt lat="43.70538" lon="7.01765">
        <ele>327</ele>
        <time>2010-03-20T08:16:04Z</time>
      </trkpt>
      <trkpt lat="43.70586" lon="7.01874">
        <ele>339</ele>
        <time>2010-03-20T08:17:10Z</time>
      </trkpt>
      <trkpt lat="43.70642" lon="7.01809">
        <ele>364</ele>
        <time>2010-03-20T08:18:10Z</time>
      </trkpt>
      <trkpt lat="43.70685" lon="7.0168">
        <ele>369</ele>
        <time>2010-03-20T08:19:10Z</time>
      </trkpt>
      <trkpt lat="43.70722" lon="7.0158">
        <ele>384</ele>
        <time>2010-03-20T08:20:10Z</time>
      </trkpt>
      <trkpt lat="43.70793" lon="7.01395">
        <ele>396</ele>
        <time>2010-03-20T08:21:58Z</time>
      </trkpt>
      <trkpt lat="43.7082" lon="7.01572">
        <ele>423</ele>
        <time>2010-03-20T08:23:24Z</time>
      </trkpt>
      <trkpt lat="43.70898" lon="7.01696">
        <ele>446</ele>
        <time>2010-03-20T08:24:24Z</time>
      </trkpt>
      <trkpt lat="43.70926" lon="7.0164">
        <ele>457</ele>
        <time>2010-03-20T08:25:28Z</time>
      </trkpt>
      <trkpt lat="43.70938" lon="7.01633">
        <ele>469</ele>
        <time>2010-03-20T08:26:28Z</time>
      </trkpt>
      <trkpt lat="43.70978" lon="7.0172">
        <ele>483</ele>
        <time>2010-03-20T08:27:40Z</time>
      </trkpt>
      <trkpt lat="43.70971" lon="7.01594">
        <ele>508</ele>
        <time>2010-03-20T08:28:40Z</time>
      </trkpt>
      <trkpt lat="43.70969" lon="7.01482">
        <ele>522</ele>
        <time>2010-03-20T08:29:40Z</time>
      </trkpt>
      <trkpt lat="43.71008" lon="7.01571">
        <ele>521</ele>
        <time>2010-03-20T08:30:40Z</time>
      </trkpt>
      <trkpt lat="43.71051" lon="7.01696">
        <ele>526</ele>
        <time>2010-03-20T08:31:46Z</time>
      </trkpt>
      <trkpt lat="43.71061" lon="7.01622">
        <ele>560</ele>
        <time>2010-03-20T08:32:46Z</time>
      </trkpt>
      <trkpt lat="43.71058" lon="7.01466">
        <ele>569</ele>
        <time>2010-03-20T08:34:04Z</time>
      </trkpt>
      <trkpt lat="43.71098" lon="7.0132">
        <ele>584</ele>
        <time>2010-03-20T08:35:16Z</time>
      </trkpt>
      <trkpt lat="43.71152" lon="7.01257">
        <ele>606</ele>
        <time>2010-03-20T08:36:16Z</time>
      </trkpt>
      <trkpt lat="43.71172" lon="7.01147">
        <ele>609</ele>
        <time>2010-03-20T08:37:28Z</time>
      </trkpt>
      <trkpt lat="43.71189" lon="7.01357">
        <ele>638</ele>
        <time>2010-03-20T08:39:16Z</time>
      </trkpt>
      <trkpt lat="43.71251" lon="7.0128">
        <ele>649</ele>
        <time>2010-03-20T08:40:22Z</time>
      </trkpt>
      <trkpt lat="43.71298" lon="7.0121">
        <ele>662</ele>
        <time>2010-03-20T08:41:22Z</time>
      </trkpt>
      <trkpt lat="43.71331" lon="7.01226">
        <ele>678</ele>
        <time>2010-03-20T08:42:28Z</time>
      </trkpt>
      <trkpt lat="43.71291" lon="7.01318">
        <ele>704</ele>
        <time>2010-03-20T08:43:28Z</time>
      </trkpt>
      <trkpt lat="43.71309" lon="7.01362">
        <ele>708</ele>
        <time>2010-03-20T08:44:28Z</time>
      </trkpt>
      <trkpt lat="43.71372" lon="7.01288">
        <ele>722</ele>
        <time>2010-03-20T08:45:28Z</time>
      </trkpt>
      <trkpt lat="43.71406" lon="7.01175">
        <ele>726</ele>
        <time>2010-03-20T08:46:34Z</time>
      </trkpt>
      <trkpt lat="43.71504" lon="7.01165">
        <ele>740</ele>
        <time>2010-03-20T08:47:43Z</time>
      </trkpt>
      <trkpt lat="43.71591" lon="7.01201">
        <ele>757</ele>
        <time>2010-03-20T08:48:52Z</time>
      </trkpt>
      <trkpt lat="43.71628" lon="7.01382">
        <ele>789</ele>
        <time>2010-03-20T08:50:34Z</time>
      </trkpt>
      <trkpt lat="43.71679" lon="7.01532">
        <ele>797</ele>
        <time>2010-03-20T08:51:59Z</time>
      </trkpt>
      <trkpt lat="43.7169" lon="7.01525">
        <ele>816</ele>
        <time>2010-03-20T08:53:09Z</time>
      </trkpt>
      <trkpt lat="43.71684" lon="7.01539">
        <ele>823</ele>
        <time>2010-03-20T08:54:15Z</time>
      </trkpt>
      <trkpt lat="43.71688" lon="7.01525">
        <ele>811</ele>
        <time>2010-03-20T08:55:15Z</time>
      </trkpt>
      <trkpt lat="43.71767" lon="7.0158">
        <ele>806</ele>
        <time>2010-03-20T08:57:28Z</time>
      </trkpt>
      <trkpt lat="43.71873" lon="7.01634">
        <ele>830</ele>
        <time>2010-03-20T08:58:59Z</time>
      </trkpt>
      <trkpt lat="43.71933" lon="7.01657">
        <ele>845</ele>
        <time>2010-03-20T08:59:59Z</time>
      </trkpt>
      <trkpt lat="43.71983" lon="7.01458">
        <ele>848</ele>
        <time>2010-03-20T09:01:34Z</time>
      </trkpt>
      <trkpt lat="43.72023" lon="7.0109">
        <ele>862</ele>
        <time>2010-03-20T09:03:04Z</time>
      </trkpt>
      <trkpt lat="43.72122" lon="7.01213">
        <ele>880</ele>
        <time>2010-03-20T09:04:04Z</time>
      </trkpt>
      <trkpt lat="43.72221" lon="7.01272">
        <ele>881</ele>
        <time>2010-03-20T09:05:04Z</time>
      </trkpt>
      <trkpt lat="43.72218" lon="7.01467">
        <ele>889</ele>
        <time>2010-03-20T09:06:11Z</time>
      </trkpt>
      <trkpt lat="43.72324" lon="7.014">
        <ele>919</ele>
        <time>2010-03-20T09:07:11Z</time>
      </trkpt>
      <trkpt lat="43.7247" lon="7.01335">
        <ele>928</ele>
        <time>2010-03-20T09:08:11Z</time>
      </trkpt>
      <trkpt lat="43.72617" lon="7.01227">
        <ele>934</ele>
        <time>2010-03-20T09:09:11Z</time>
      </trkpt>
      <trkpt lat="43.73723" lon="7.01786">
        <ele>931</ele>
        <time>2010-03-20T09:15:28Z</time>
      </trkpt>
      <trkpt lat="43.74041" lon="7.01793">
        <ele>884</ele>
        <time>2010-03-20T09:17:27Z</time>
      </trkpt>
      <trkpt lat="43.74229" lon="7.01802">
        <ele>873</ele>
        <time>2010-03-20T09:18:32Z</time>
      </trkpt>
      <trkpt lat="43.74481" lon="7.01596">
        <ele>878</ele>
        <time>2010-03-20T09:20:10Z</time>
      </trkpt>
      <trkpt lat="43.74723" lon="7.01409">
        <ele>886</ele>
        <time>2010-03-20T09:22:04Z</time>
      </trkpt>
      <trkpt lat="43.74716" lon="7.01407">
        <ele>890</ele>
        <time>2010-03-20T09:23:10Z</time>
      </trkpt>
      <trkpt lat="43.74763" lon="7.01421">
        <ele>900</ele>
        <time>2010-03-20T09:24:10Z</time>
      </trkpt>
      <trkpt lat="43.74912" lon="7.01582">
        <ele>900</ele>
        <time>2010-03-20T09:25:27Z</time>
      </trkpt>
      <trkpt lat="43.75103" lon="7.01615">
        <ele>904</ele>
        <time>2010-03-20T09:28:46Z</time>
      </trkpt>
      <trkpt lat="43.75266" lon="7.01723">
        <ele>918</ele>
        <time>2010-03-20T09:30:04Z</time>
      </trkpt>
      <trkpt lat="43.75419" lon="7.01788">
        <ele>931</ele>
        <time>2010-03-20T09:31:10Z</time>
      </trkpt>
      <trkpt lat="43.75605" lon="7.01836">
        <ele>946</ele>
        <time>2010-03-20T09:32:10Z</time>
      </trkpt>
      <trkpt lat="43.75771" lon="7.01889">
        <ele>954</ele>
        <time>2010-03-20T09:33:16Z</time>
      </trkpt>
      <trkpt lat="43.75811" lon="7.01742">
        <ele>960</ele>
        <time>2010-03-20T09:34:16Z</time>
      </trkpt>
      <trkpt lat="43.75794" lon="7.01569">
        <ele>965</ele>
        <time>2010-03-20T09:35:17Z</time>
      </trkpt>
      <trkpt lat="43.75777" lon="7.0156">
        <ele>970</ele>
        <time>2010-03-20T09:36:22Z</time>
      </trkpt>
      <trkpt lat="43.75795" lon="7.01557">
        <ele>964</ele>
        <time>2010-03-20T09:37:22Z</time>
      </trkpt>
      <trkpt lat="43.75804" lon="7.01572">
        <ele>963</ele>
        <time>2010-03-20T09:38:23Z</time>
      </trkpt>
      <trkpt lat="43.75795" lon="7.0157">
        <ele>965</ele>
        <time>2010-03-20T09:39:28Z</time>
      </trkpt>
      <trkpt lat="43.75802" lon="7.01565">
        <ele>967</ele>
        <time>2010-03-20T09:40:58Z</time>
      </trkpt>
      <trkpt lat="43.75792" lon="7.01562">
        <ele>966</ele>
        <time>2010-03-20T09:41:58Z</time>
      </trkpt>
      <trkpt lat="43.75836" lon="7.01526">
        <ele>968</ele>
        <time>2010-03-20T09:43:34Z</time>
      </trkpt>
      <trkpt lat="43.7602" lon="7.0139">
        <ele>958</ele>
        <time>2010-03-20T09:44:34Z</time>
      </trkpt>
      <trkpt lat="43.76056" lon="7.01173">
        <ele>939</ele>
        <time>2010-03-20T09:45:40Z</time>
      </trkpt>
      <trkpt lat="43.76109" lon="7.00895">
        <ele>921</ele>
        <time>2010-03-20T09:46:58Z</time>
      </trkpt>
      <trkpt lat="43.76048" lon="7.00665">
        <ele>908</ele>
        <time>2010-03-20T09:48:04Z</time>
      </trkpt>
      <trkpt lat="43.76125" lon="7.00373">
        <ele>887</ele>
        <time>2010-03-20T09:49:46Z</time>
      </trkpt>
      <trkpt lat="43.76129" lon="7.00368">
        <ele>873</ele>
        <time>2010-03-20T09:51:03Z</time>
      </trkpt>
      <trkpt lat="43.76132" lon="7.0037">
        <ele>872</ele>
        <time>2010-03-20T09:52:19Z</time>
      </trkpt>
      <trkpt lat="43.76139" lon="7.00366">
        <ele>868</ele>
        <time>2010-03-20T09:53:29Z</time>
      </trkpt>
      <trkpt lat="43.76255" lon="7.00303">
        <ele>861</ele>
        <time>2010-03-20T09:54:58Z</time>
      </trkpt>
      <trkpt lat="43.76437" lon="7.00132">
        <ele>858</ele>
        <time>2010-03-20T09:55:58Z</time>
      </trkpt>
      <trkpt lat="43.76646" lon="7.00184">
        <ele>856</ele>
        <time>2010-03-20T09:56:58Z</time>
      </trkpt>
      <trkpt lat="43.7674" lon="7.00287">
        <ele>854</ele>
        <time>2010-03-20T09:58:09Z</time>
      </trkpt>
      <trkpt lat="43.76853" lon="7.00218">
        <ele>862</ele>
        <time>2010-03-20T09:59:09Z</time>
      </trkpt>
      <trkpt lat="43.7686" lon="7.00032">
        <ele>868</ele>
        <time>2010-03-20T10:00:10Z</time>
      </trkpt>
      <trkpt lat="43.76767" lon="6.99944">
        <ele>879</ele>
        <time>2010-03-20T10:01:16Z</time>
      </trkpt>
      <trkpt lat="43.76923" lon="6.99841">
        <ele>884</ele>
        <time>2010-03-20T10:02:16Z</time>
      </trkpt>
      <trkpt lat="43.77006" lon="6.99892">
        <ele>883</ele>
        <time>2010-03-20T10:03:22Z</time>
      </trkpt>
      <trkpt lat="43.76879" lon="6.99808">
        <ele>882</ele>
        <time>2010-03-20T10:05:28Z</time>
      </trkpt>
      <trkpt lat="43.76589" lon="6.99657">
        <ele>876</ele>
        <time>2010-03-20T10:06:29Z</time>
      </trkpt>
      <trkpt lat="43.76543" lon="6.99525">
        <ele>822</ele>
        <time>2010-03-20T10:07:29Z</time>
      </trkpt>
      <trkpt lat="43.76523" lon="6.9935">
        <ele>816</ele>
        <time>2010-03-20T10:10:06Z</time>
      </trkpt>
      <trkpt lat="43.76492" lon="6.99124">
        <ele>778</ele>
        <time>2010-03-20T10:12:27Z</time>
      </trkpt>
      <trkpt lat="43.7631" lon="6.98972">
        <ele>695</ele>
        <time>2010-03-20T10:15:45Z</time>
      </trkpt>
      <trkpt lat="43.76215" lon="6.99008">
        <ele>650</ele>
        <time>2010-03-20T10:19:13Z</time>
      </trkpt>
      <trkpt lat="43.76187" lon="6.98828">
        <ele>570</ele>
        <time>2010-03-20T10:25:45Z</time>
      </trkpt>
      <trkpt lat="43.76498" lon="6.98687">
        <ele>526</ele>
        <time>2010-03-20T10:27:14Z</time>
      </trkpt>
      <trkpt lat="43.76707" lon="6.98682">
        <ele>525</ele>
        <time>2010-03-20T10:28:14Z</time>
      </trkpt>
      <trkpt lat="43.76875" lon="6.985">
        <ele>514</ele>
        <time>2010-03-20T10:29:14Z</time>
      </trkpt>
      <trkpt lat="43.77447" lon="6.98336">
        <ele>515</ele>
        <time>2010-03-20T10:32:27Z</time>
      </trkpt>
      <trkpt lat="43.77588" lon="6.98028">
        <ele>522</ele>
        <time>2010-03-20T10:33:47Z</time>
      </trkpt>
      <trkpt lat="43.77636" lon="6.9783">
        <ele>522</ele>
        <time>2010-03-20T10:34:52Z</time>
      </trkpt>
      <trkpt lat="43.7726" lon="6.98308">
        <ele>527</ele>
        <time>2010-03-20T10:40:27Z</time>
      </trkpt>
      <trkpt lat="43.77325" lon="6.97436">
        <ele>546</ele>
        <time>2010-03-20T10:58:51Z</time>
      </trkpt>
      <trkpt lat="43.77241" lon="6.97169">
        <ele>660</ele>
        <time>2010-03-20T11:00:40Z</time>
      </trkpt>
      <trkpt lat="43.77068" lon="6.9702">
        <ele>668</ele>
        <time>2010-03-20T11:06:28Z</time>
      </trkpt>
      <trkpt lat="43.77073" lon="6.96736">
        <ele>698</ele>
        <time>2010-03-20T11:07:52Z</time>
      </trkpt>
      <trkpt lat="43.77104" lon="6.96434">
        <ele>718</ele>
        <time>2010-03-20T11:08:52Z</time>
      </trkpt>
      <trkpt lat="43.77038" lon="6.96228">
        <ele>734</ele>
        <time>2010-03-20T11:10:04Z</time>
      </trkpt>
      <trkpt lat="43.77007" lon="6.96345">
        <ele>753</ele>
        <time>2010-03-20T11:11:04Z</time>
      </trkpt>
      <trkpt lat="43.7693" lon="6.9635">
        <ele>760</ele>
        <time>2010-03-20T11:12:04Z</time>
      </trkpt>
      <trkpt lat="43.76897" lon="6.9648">
        <ele>765</ele>
        <time>2010-03-20T11:13:04Z</time>
      </trkpt>
      <trkpt lat="43.76843" lon="6.96664">
        <ele>776</ele>
        <time>2010-03-20T11:14:04Z</time>
      </trkpt>
      <trkpt lat="43.768" lon="6.96797">
        <ele>786</ele>
        <time>2010-03-20T11:15:04Z</time>
      </trkpt>
      <trkpt lat="43.76748" lon="6.96939">
        <ele>796</ele>
        <time>2010-03-20T11:16:05Z</time>
      </trkpt>
      <trkpt lat="43.7664" lon="6.96945">
        <ele>808</ele>
        <time>2010-03-20T11:17:10Z</time>
      </trkpt>
      <trkpt lat="43.76581" lon="6.97095">
        <ele>820</ele>
        <time>2010-03-20T11:18:10Z</time>
      </trkpt>
      <trkpt lat="43.76388" lon="6.97198">
        <ele>829</ele>
        <time>2010-03-20T11:19:11Z</time>
      </trkpt>
      <trkpt lat="43.76292" lon="6.97225">
        <ele>841</ele>
        <time>2010-03-20T11:20:11Z</time>
      </trkpt>
      <trkpt lat="43.76222" lon="6.97316">
        <ele>853</ele>
        <time>2010-03-20T11:21:22Z</time>
      </trkpt>
      <trkpt lat="43.76157" lon="6.97321">
        <ele>867</ele>
        <time>2010-03-20T11:22:22Z</time>
      </trkpt>
      <trkpt lat="43.76086" lon="6.97274">
        <ele>887</ele>
        <time>2010-03-20T11:23:22Z</time>
      </trkpt>
      <trkpt lat="43.76012" lon="6.97182">
        <ele>889</ele>
        <time>2010-03-20T11:24:22Z</time>
      </trkpt>
      <trkpt lat="43.7597" lon="6.97235">
        <ele>902</ele>
        <time>2010-03-20T11:25:24Z</time>
      </trkpt>
      <trkpt lat="43.75926" lon="6.97347">
        <ele>910</ele>
        <time>2010-03-20T11:26:34Z</time>
      </trkpt>
      <trkpt lat="43.75883" lon="6.97397">
        <ele>923</ele>
        <time>2010-03-20T11:27:58Z</time>
      </trkpt>
      <trkpt lat="43.75681" lon="6.97368">
        <ele>941</ele>
        <time>2010-03-20T11:29:40Z</time>
      </trkpt>
      <trkpt lat="43.75549" lon="6.97188">
        <ele>951</ele>
        <time>2010-03-20T11:30:40Z</time>
      </trkpt>
      <trkpt lat="43.75317" lon="6.9725">
        <ele>955</ele>
        <time>2010-03-20T11:31:46Z</time>
      </trkpt>
      <trkpt lat="43.74922" lon="6.97275">
        <ele>952</ele>
        <time>2010-03-20T11:33:53Z</time>
      </trkpt>
      <trkpt lat="43.74706" lon="6.97431">
        <ele>968</ele>
        <time>2010-03-20T11:36:10Z</time>
      </trkpt>
      <trkpt lat="43.74594" lon="6.97566">
        <ele>990</ele>
        <time>2010-03-20T11:37:46Z</time>
      </trkpt>
      <trkpt lat="43.74534" lon="6.97734">
        <ele>1001</ele>
        <time>2010-03-20T11:39:52Z</time>
      </trkpt>
      <trkpt lat="43.74424" lon="6.97779">
        <ele>1005</ele>
        <time>2010-03-20T11:42:58Z</time>
      </trkpt>
      <trkpt lat="43.7431" lon="6.97881">
        <ele>1031</ele>
        <time>2010-03-20T11:45:15Z</time>
      </trkpt>
      <trkpt lat="43.7417" lon="6.97791">
        <ele>1059</ele>
        <time>2010-03-20T11:46:58Z</time>
      </trkpt>
      <trkpt lat="43.74007" lon="6.97595">
        <ele>1078</ele>
        <time>2010-03-20T11:48:42Z</time>
      </trkpt>
      <trkpt lat="43.74011" lon="6.9757">
        <ele>1084</ele>
        <time>2010-03-20T11:49:57Z</time>
      </trkpt>
      <trkpt lat="43.73983" lon="6.97497">
        <ele>1078</ele>
        <time>2010-03-20T11:51:22Z</time>
      </trkpt>
      <trkpt lat="43.7381" lon="6.97422">
        <ele>1070</ele>
        <time>2010-03-20T11:52:27Z</time>
      </trkpt>
      <trkpt lat="43.73479" lon="6.97337">
        <ele>1054</ele>
        <time>2010-03-20T11:54:16Z</time>
      </trkpt>
      <trkpt lat="43.73239" lon="6.97228">
        <ele>1040</ele>
        <time>2010-03-20T11:55:52Z</time>
      </trkpt>
      <trkpt lat="43.73074" lon="6.97158">
        <ele>1040</ele>
        <time>2010-03-20T11:57:04Z</time>
      </trkpt>
      <trkpt lat="43.72988" lon="6.9711">
        <ele>1041</ele>
        <time>2010-03-20T11:58:46Z</time>
      </trkpt>
      <trkpt lat="43.72986" lon="6.97108">
        <ele>1041</ele>
        <time>2010-03-20T12:00:22Z</time>
      </trkpt>
      <trkpt lat="43.72961" lon="6.97257">
        <ele>1034</ele>
        <time>2010-03-20T12:01:22Z</time>
      </trkpt>
      <trkpt lat="43.72891" lon="6.97281">
        <ele>1012</ele>
        <time>2010-03-20T12:02:22Z</time>
      </trkpt>
      <trkpt lat="43.72815" lon="6.97359">
        <ele>984</ele>
        <time>2010-03-20T12:03:24Z</time>
      </trkpt>
      <trkpt lat="43.72815" lon="6.97364">
        <ele>955</ele>
        <time>2010-03-20T12:04:24Z</time>
      </trkpt>
      <trkpt lat="43.72786" lon="6.97244">
        <ele>942</ele>
        <time>2010-03-20T12:05:28Z</time>
      </trkpt>
      <trkpt lat="43.72695" lon="6.96812">
        <ele>914</ele>
        <time>2010-03-20T12:06:28Z</time>
      </trkpt>
      <trkpt lat="43.72664" lon="6.96801">
        <ele>891</ele>
        <time>2010-03-20T12:07:34Z</time>
      </trkpt>
      <trkpt lat="43.72502" lon="6.96774">
        <ele>864</ele>
        <time>2010-03-20T12:08:40Z</time>
      </trkpt>
      <trkpt lat="43.72258" lon="6.96722">
        <ele>834</ele>
        <time>2010-03-20T12:10:10Z</time>
      </trkpt>
      <trkpt lat="43.72233" lon="6.96629">
        <ele>784</ele>
        <time>2010-03-20T12:11:41Z</time>
      </trkpt>
      <trkpt lat="43.7206" lon="6.9647">
        <ele>780</ele>
        <time>2010-03-20T12:12:46Z</time>
      </trkpt>
      <trkpt lat="43.72007" lon="6.96222">
        <ele>771</ele>
        <time>2010-03-20T12:13:52Z</time>
      </trkpt>
      <trkpt lat="43.718" lon="6.9632">
        <ele>775</ele>
        <time>2010-03-20T12:15:16Z</time>
      </trkpt>
      <trkpt lat="43.71583" lon="6.96685">
        <ele>781</ele>
        <time>2010-03-20T12:17:22Z</time>
      </trkpt>
      <trkpt lat="43.71426" lon="6.96507">
        <ele>791</ele>
        <time>2010-03-20T12:18:52Z</time>
      </trkpt>
      <trkpt lat="43.71195" lon="6.96289">
        <ele>797</ele>
        <time>2010-03-20T12:19:53Z</time>
      </trkpt>
      <trkpt lat="43.71044" lon="6.9638">
        <ele>797</ele>
        <time>2010-03-20T12:21:34Z</time>
      </trkpt>
      <trkpt lat="43.70944" lon="6.96075">
        <ele>793</ele>
        <time>2010-03-20T12:24:04Z</time>
      </trkpt>
      <trkpt lat="43.70795" lon="6.95823">
        <ele>806</ele>
        <time>2010-03-20T12:26:10Z</time>
      </trkpt>
      <trkpt lat="43.70791" lon="6.95844">
        <ele>818</ele>
        <time>2010-03-20T12:27:34Z</time>
      </trkpt>
      <trkpt lat="43.70805" lon="6.95829">
        <ele>814</ele>
        <time>2010-03-20T12:29:10Z</time>
      </trkpt>
      <trkpt lat="43.70676" lon="6.9611">
        <ele>806</ele>
        <time>2010-03-20T12:30:40Z</time>
      </trkpt>
      <trkpt lat="43.70934" lon="6.96942">
        <ele>797</ele>
        <time>2010-03-20T12:34:04Z</time>
      </trkpt>
      <trkpt lat="43.70905" lon="6.9711">
        <ele>759</ele>
        <time>2010-03-20T12:35:29Z</time>
      </trkpt>
      <trkpt lat="43.70757" lon="6.97464">
        <ele>721</ele>
        <time>2010-03-20T12:36:29Z</time>
      </trkpt>
      <trkpt lat="43.70414" lon="6.97407">
        <ele>690</ele>
        <time>2010-03-20T12:38:58Z</time>
      </trkpt>
      <trkpt lat="43.70348" lon="6.97432">
        <ele>648</ele>
        <time>2010-03-20T12:40:40Z</time>
      </trkpt>
      <trkpt lat="43.70324" lon="6.97432">
        <ele>606</ele>
        <time>2010-03-20T12:41:40Z</time>
      </trkpt>
      <trkpt lat="43.70305" lon="6.97415">
        <ele>604</ele>
        <time>2010-03-20T12:42:45Z</time>
      </trkpt>
      <trkpt lat="43.70213" lon="6.97172">
        <ele>576</ele>
        <time>2010-03-20T12:44:10Z</time>
      </trkpt>
      <trkpt lat="43.70201" lon="6.97173">
        <ele>556</ele>
        <time>2010-03-20T12:45:16Z</time>
      </trkpt>
      <trkpt lat="43.70216" lon="6.97172">
        <ele>551</ele>
        <time>2010-03-20T12:46:16Z</time>
      </trkpt>
      <trkpt lat="43.70229" lon="6.97149">
        <ele>546</ele>
        <time>2010-03-20T12:47:21Z</time>
      </trkpt>
      <trkpt lat="43.70193" lon="6.97798">
        <ele>537</ele>
        <time>2010-03-20T12:50:10Z</time>
      </trkpt>
      <trkpt lat="43.70233" lon="6.98081">
        <ele>526</ele>
        <time>2010-03-20T12:51:40Z</time>
      </trkpt>
      <trkpt lat="43.70286" lon="6.98352">
        <ele>517</ele>
        <time>2010-03-20T12:52:58Z</time>
      </trkpt>
      <trkpt lat="43.70334" lon="6.98422">
        <ele>509</ele>
        <time>2010-03-20T12:54:52Z</time>
      </trkpt>
      <trkpt lat="43.7031" lon="6.98491">
        <ele>496</ele>
        <time>2010-03-20T12:55:57Z</time>
      </trkpt>
      <trkpt lat="43.7042" lon="6.98527">
        <ele>486</ele>
        <time>2010-03-20T12:57:05Z</time>
      </trkpt>
      <trkpt lat="43.7079" lon="6.9832">
        <ele>478</ele>
        <time>2010-03-20T12:59:21Z</time>
      </trkpt>
      <trkpt lat="43.70618" lon="6.98623">
        <ele>446</ele>
        <time>2010-03-20T13:00:43Z</time>
      </trkpt>
      <trkpt lat="43.70565" lon="6.98837">
        <ele>407</ele>
        <time>2010-03-20T13:01:57Z</time>
      </trkpt>
      <trkpt lat="43.70089" lon="6.98864">
        <ele>356</ele>
        <time>2010-03-20T13:03:28Z</time>
      </trkpt>
      <trkpt lat="43.70123" lon="6.98926">
        <ele>359</ele>
        <time>2010-03-20T13:04:28Z</time>
      </trkpt>
      <trkpt lat="43.70137" lon="6.98915">
        <ele>359</ele>
        <time>2010-03-20T13:05:28Z</time>
      </trkpt>
      <trkpt lat="43.70134" lon="6.98911">
        <ele>349</ele>
        <time>2010-03-20T13:06:29Z</time>
      </trkpt>
      <trkpt lat="43.7" lon="6.98947">
        <ele>342</ele>
        <time>2010-03-20T13:08:41Z</time>
      </trkpt>
      <trkpt lat="43.69781" lon="6.9909">
        <ele>303</ele>
        <time>2010-03-20T13:10:52Z</time>
      </trkpt>
      <trkpt lat="43.69508" lon="6.9932">
        <ele>258</ele>
        <time>2010-03-20T13:12:40Z</time>
      </trkpt>
      <trkpt lat="43.69595" lon="6.99519">
        <ele>215</ele>
        <time>2010-03-20T13:14:18Z</time>
      </trkpt>
    </trkseg>
  </trk>
</gpx>